createdAt,value
2022-10-11T00:01:41.277Z,11.77
2022-10-11T00:04:08.247Z,11.67
2022-10-11T00:06:34.760Z,11.56
2022-10-11T00:09:01.192Z,11.57
2022-10-11T00:11:27.914Z,11.55
2022-10-11T00:13:54.310Z,11.55
2022-10-11T00:16:21.198Z,11.35
2022-10-11T00:18:47.549Z,11.22
2022-10-11T00:21:15.910Z,11.15
2022-10-11T00:23:42.591Z,11.18
2022-10-11T00:26:10.545Z,11.17
2022-10-11T00:28:38.090Z,11.07
2022-10-11T00:31:15.726Z,11.05
2022-10-11T00:33:42.516Z,11.12
2022-10-11T00:36:09.774Z,11.23
2022-10-11T00:38:36.186Z,11.26
2022-10-11T00:41:03.040Z,11.22
2022-10-11T00:43:31.171Z,11.26
2022-10-11T00:45:57.509Z,11.27
2022-10-11T00:48:42.348Z,11.26
2022-10-11T00:51:29.343Z,11.20
2022-10-11T00:53:56.691Z,11.22
2022-10-11T00:56:39.007Z,11.26
2022-10-11T00:59:18.802Z,11.29
2022-10-11T01:01:45.867Z,11.32
2022-10-11T01:04:12.756Z,11.32
2022-10-11T01:06:40.445Z,11.28
2022-10-11T01:09:07.040Z,11.42
2022-10-11T01:11:36.448Z,11.63
2022-10-11T01:14:35.112Z,11.50
2022-10-11T01:17:26.248Z,11.36
2022-10-11T01:20:06.400Z,11.31
2022-10-11T01:23:07.691Z,11.35
2022-10-11T01:26:05.878Z,11.42
2022-10-11T01:28:35.820Z,11.36
2022-10-11T01:31:11.868Z,11.39
2022-10-11T01:34:02.452Z,11.32
2022-10-11T01:36:42.077Z,11.17
2022-10-11T01:39:30.567Z,11.15
2022-10-11T01:42:01.570Z,11.15
2022-10-11T01:44:29.394Z,11.14
2022-10-11T01:46:56.731Z,11.12
2022-10-11T01:49:23.231Z,11.04
2022-10-11T01:51:54.363Z,10.87
2022-10-11T01:55:04.045Z,10.76
2022-10-11T01:57:48.790Z,10.93
2022-10-11T02:00:24.887Z,11.02
2022-10-11T02:03:04.732Z,11.07
2022-10-11T02:05:47.240Z,11.08
2022-10-11T02:08:22.640Z,10.92
2022-10-11T02:11:01.419Z,10.87
2022-10-11T02:13:41.284Z,10.92
2022-10-11T02:16:13.250Z,10.93
2022-10-11T02:18:44.817Z,10.83
2022-10-11T02:21:15.962Z,10.76
2022-10-11T02:23:56.325Z,10.58
2022-10-11T02:26:25.180Z,10.63
2022-10-11T02:28:56.602Z,10.56
2022-10-11T02:31:24.964Z,10.46
2022-10-11T02:34:07.059Z,10.38
2022-10-11T02:37:10.165Z,10.30
2022-10-11T02:39:48.793Z,10.28
2022-10-11T02:42:26.276Z,10.22
2022-10-11T02:45:01.229Z,10.13
2022-10-11T02:47:30.446Z,10.00
2022-10-11T02:49:59.051Z,9.92
2022-10-11T02:52:25.632Z,9.83
2022-10-11T02:54:51.962Z,9.70
2022-10-11T02:57:18.880Z,9.64
2022-10-11T02:59:45.183Z,9.54
2022-10-11T03:02:12.180Z,9.54
2022-10-11T03:04:38.916Z,9.47
2022-10-11T03:07:05.278Z,9.42
2022-10-11T03:09:31.691Z,9.34
2022-10-11T03:11:58.531Z,9.35
2022-10-11T03:14:24.979Z,9.31
2022-10-11T03:16:51.652Z,9.24
2022-10-11T03:19:19.514Z,9.16
2022-10-11T03:21:46.095Z,9.13
2022-10-11T03:24:12.867Z,9.07
2022-10-11T03:26:39.284Z,9.03
2022-10-11T03:29:05.653Z,9.03
2022-10-11T03:31:32.359Z,8.87
2022-10-11T03:33:58.666Z,8.84
2022-10-11T03:36:25.027Z,8.76
2022-10-11T03:38:51.773Z,8.74
2022-10-11T03:41:18.094Z,8.75
2022-10-11T03:43:44.403Z,8.74
2022-10-11T03:46:11.258Z,8.71
2022-10-11T03:48:37.699Z,8.75
2022-10-11T03:51:04.111Z,8.77
2022-10-11T03:53:30.860Z,8.85
2022-10-11T03:55:57.230Z,8.97
2022-10-11T03:58:24.304Z,9.00
2022-10-11T04:00:52.896Z,9.07
2022-10-11T04:03:19.336Z,9.09
2022-10-11T04:05:46.151Z,9.16
2022-10-11T04:08:12.598Z,9.19
2022-10-11T04:10:40.363Z,9.25
2022-10-11T04:13:07.504Z,9.34
2022-10-11T04:15:33.918Z,9.36
2022-10-11T04:18:00.829Z,9.36
2022-10-11T04:20:27.194Z,9.36
2022-10-11T04:22:53.507Z,9.35
2022-10-11T04:25:20.321Z,9.37
2022-10-11T04:27:46.653Z,9.40
2022-10-11T04:30:13.354Z,9.36
2022-10-11T04:32:40.104Z,9.38
2022-10-11T04:35:06.675Z,9.38
2022-10-11T04:37:33.549Z,9.32
2022-10-11T04:39:59.900Z,9.26
2022-10-11T04:42:26.831Z,9.21
2022-10-11T04:44:53.143Z,9.13
2022-10-11T04:47:20.302Z,9.20
2022-10-11T04:49:46.621Z,9.16
2022-10-11T04:52:12.967Z,9.04
2022-10-11T04:54:39.477Z,9.05
2022-10-11T04:57:05.891Z,9.12
2022-10-11T04:59:32.341Z,9.21
2022-10-11T05:01:59.198Z,9.28
2022-10-11T05:04:25.596Z,9.28
2022-10-11T05:06:51.999Z,9.31
2022-10-11T05:09:18.416Z,8.99
2022-10-11T05:11:44.732Z,9.06
2022-10-11T05:14:11.572Z,9.14
2022-10-11T05:16:37.935Z,9.13
2022-10-11T05:19:04.258Z,9.10
2022-10-11T05:21:31.368Z,9.29
2022-10-11T05:23:58.229Z,9.41
2022-10-11T05:26:27.603Z,9.38
2022-10-11T05:28:55.497Z,9.32
2022-10-11T05:31:22.313Z,9.57
2022-10-11T05:33:49.116Z,9.65
2022-10-11T05:36:16.144Z,9.68
2022-10-11T05:38:42.684Z,9.75
2022-10-11T05:41:10.763Z,9.79
2022-10-11T05:43:37.398Z,9.82
2022-10-11T05:46:04.222Z,9.87
2022-10-11T05:48:31.435Z,9.80
2022-10-11T05:51:03.023Z,9.86
2022-10-11T05:53:29.745Z,9.94
2022-10-11T05:55:56.501Z,10.02
2022-10-11T05:58:23.083Z,10.05
2022-10-11T06:00:49.445Z,10.02
2022-10-11T06:03:16.684Z,10.25
2022-10-11T06:05:43.361Z,10.31
2022-10-11T06:08:10.658Z,10.36
2022-10-11T06:10:38.555Z,10.30
2022-10-11T06:13:06.195Z,10.29
2022-10-11T06:15:34.031Z,10.22
2022-10-11T06:18:00.374Z,10.35
2022-10-11T06:20:27.072Z,10.39
2022-10-11T06:22:53.535Z,10.57
2022-10-11T06:25:19.864Z,10.62
2022-10-11T06:27:46.214Z,10.71
2022-10-11T06:30:13.071Z,10.89
2022-10-11T06:32:39.830Z,11.16
2022-10-11T06:35:06.585Z,11.29
2022-10-11T06:37:33.031Z,11.48
2022-10-11T06:39:59.946Z,11.57
2022-10-11T06:42:26.723Z,11.61
2022-10-11T06:44:53.028Z,11.12
2022-10-11T06:47:19.330Z,11.00
2022-10-11T06:49:46.292Z,11.17
2022-10-11T06:52:12.622Z,11.37
2022-10-11T06:54:43.884Z,11.63
2022-10-11T06:57:11.533Z,11.89
2022-10-11T06:59:37.879Z,11.55
2022-10-11T07:02:04.220Z,11.56
2022-10-11T07:04:31.053Z,11.93
2022-10-11T07:06:57.980Z,11.86
2022-10-11T07:09:24.307Z,11.92
2022-10-11T07:11:51.030Z,12.06
2022-10-11T07:14:17.813Z,12.04
2022-10-11T07:16:44.157Z,12.18
2022-10-11T07:19:10.600Z,12.24
2022-10-11T07:21:37.520Z,12.47
2022-10-11T07:24:04.152Z,12.53
2022-10-11T07:26:36.814Z,12.62
2022-10-11T07:29:05.552Z,12.72
2022-10-11T07:31:31.936Z,12.87
2022-10-11T07:33:58.310Z,13.06
2022-10-11T07:36:25.810Z,13.45
2022-10-11T07:38:52.415Z,13.77
2022-10-11T07:41:19.389Z,14.56
2022-10-11T07:43:48.207Z,15.00
2022-10-11T07:46:15.079Z,15.32
2022-10-11T07:48:41.666Z,16.05
2022-10-11T07:51:12.140Z,15.60
2022-10-11T07:53:49.963Z,15.56
2022-10-11T07:56:18.960Z,15.33
2022-10-11T07:58:50.880Z,15.29
2022-10-11T08:01:17.433Z,15.27
2022-10-11T08:03:43.798Z,15.01
2022-10-11T08:06:13.944Z,15.06
2022-10-11T08:08:40.354Z,15.10
2022-10-11T08:11:07.072Z,15.48
2022-10-11T08:13:34.510Z,15.89
2022-10-11T08:16:01.792Z,16.58
2022-10-11T08:18:28.699Z,17.24
2022-10-11T08:20:55.041Z,18.32
2022-10-11T08:23:21.405Z,17.56
2022-10-11T08:25:48.866Z,17.85
2022-10-11T08:28:17.543Z,17.61
2022-10-11T08:30:51.834Z,17.21
2022-10-11T08:33:20.064Z,17.66
2022-10-11T08:35:47.027Z,18.74
2022-10-11T08:41:02.361Z,18.30
2022-10-11T08:43:46.002Z,18.13
2022-10-11T08:46:15.318Z,16.94
2022-10-11T08:48:45.563Z,16.61
2022-10-11T08:51:23.780Z,16.12
2022-10-11T08:54:23.231Z,15.71
2022-10-11T08:56:50.722Z,15.90
2022-10-11T08:59:38.825Z,15.80
2022-10-11T09:02:19.810Z,15.49
2022-10-11T09:04:50.337Z,15.26
2022-10-11T09:07:22.395Z,15.15
2022-10-11T09:10:10.990Z,15.43
2022-10-11T09:13:31.024Z,14.91
2022-10-11T09:16:25.609Z,14.60
2022-10-11T09:19:17.972Z,14.62
2022-10-11T09:22:06.166Z,15.01
2022-10-11T09:25:07.247Z,14.84
2022-10-11T09:28:01.718Z,14.67
2022-10-11T09:30:29.668Z,14.76
2022-10-11T09:33:08.622Z,15.07
2022-10-11T09:35:42.258Z,14.99
2022-10-11T09:38:26.862Z,15.00
2022-10-11T09:41:07.695Z,15.37
2022-10-11T09:43:34.589Z,15.31
2022-10-11T09:46:00.944Z,15.01
2022-10-11T09:48:40.604Z,15.01
2022-10-11T09:51:14.843Z,14.61
2022-10-11T09:53:53.020Z,14.79
2022-10-11T09:56:20.485Z,14.91
2022-10-11T09:58:47.134Z,14.86
2022-10-11T10:01:25.099Z,14.81
2022-10-11T10:04:10.252Z,14.76
2022-10-11T10:06:37.659Z,14.67
2022-10-11T10:09:19.522Z,14.47
2022-10-11T10:11:46.471Z,14.65
2022-10-11T10:14:28.773Z,14.46
2022-10-11T10:17:19.133Z,14.48
2022-10-11T10:19:52.074Z,14.33
2022-10-11T10:22:30.653Z,14.10
2022-10-11T10:24:58.794Z,14.13
2022-10-11T10:27:27.462Z,14.23
2022-10-11T10:30:10.190Z,14.17
2022-10-11T10:33:07.510Z,14.14
2022-10-11T10:35:50.969Z,14.18
2022-10-11T10:38:33.012Z,14.23
2022-10-11T10:41:03.310Z,14.24
2022-10-11T10:43:35.108Z,14.44
2022-10-11T10:46:20.316Z,14.75
2022-10-11T10:52:12.177Z,15.00
2022-10-11T10:55:01.824Z,15.10
2022-10-11T10:57:46.924Z,15.13
2022-10-11T11:00:20.425Z,15.04
2022-10-11T11:02:50.955Z,15.09
2022-10-11T11:05:36.877Z,14.67
2022-10-11T11:08:17.258Z,14.80
2022-10-11T11:11:08.931Z,14.75
2022-10-11T11:13:57.076Z,15.12
2022-10-11T11:16:42.451Z,15.32
2022-10-11T11:19:33.796Z,15.57
2022-10-11T11:22:28.006Z,15.93
2022-10-11T11:25:17.360Z,15.79
2022-10-11T11:28:00.819Z,15.97
2022-10-11T11:30:41.414Z,15.70
2022-10-11T11:33:10.748Z,16.51
2022-10-11T11:35:42.314Z,16.35
2022-10-11T11:38:20.235Z,16.29
2022-10-11T11:40:53.176Z,16.52
2022-10-11T11:43:39.520Z,16.26
2022-10-11T11:46:14.014Z,16.29
2022-10-11T11:48:40.462Z,15.67
2022-10-11T11:51:30.632Z,16.26
2022-10-11T11:54:16.383Z,16.54
2022-10-11T11:56:46.072Z,15.85
2022-10-11T11:59:31.186Z,16.08
2022-10-11T12:02:04.427Z,16.27
2022-10-11T12:04:42.070Z,17.13
2022-10-11T12:07:16.424Z,17.55
2022-10-11T12:09:46.824Z,16.00
2022-10-11T12:12:48.983Z,16.01
2022-10-11T12:15:23.406Z,15.88
2022-10-11T12:17:59.107Z,16.48
2022-10-11T12:20:28.558Z,16.11
2022-10-11T12:23:30.627Z,16.67
2022-10-11T12:26:27.936Z,16.39
2022-10-11T12:29:18.705Z,15.78
2022-10-11T12:31:47.996Z,15.90
2022-10-11T12:34:26.680Z,16.04
2022-10-11T12:36:53.088Z,16.16
2022-10-11T12:39:19.451Z,16.00
2022-10-11T12:41:49.373Z,16.07
2022-10-11T12:44:18.480Z,15.96
2022-10-11T12:46:51.259Z,16.02
2022-10-11T12:49:37.659Z,15.53
2022-10-11T12:52:07.078Z,15.37
2022-10-11T12:54:55.801Z,15.66
2022-10-11T12:57:39.645Z,15.23
2022-10-11T13:00:31.419Z,15.32
2022-10-11T13:03:01.099Z,15.53
2022-10-11T13:05:45.324Z,15.42
2022-10-11T13:08:18.742Z,14.94
2022-10-11T13:10:47.934Z,14.63
2022-10-11T13:13:23.188Z,14.90
2022-10-11T13:15:51.983Z,14.98
2022-10-11T13:18:21.978Z,15.09
2022-10-11T13:20:48.483Z,15.07
2022-10-11T13:23:27.978Z,15.38
2022-10-11T13:25:56.181Z,15.24
2022-10-11T13:28:23.523Z,15.12
2022-10-11T13:30:54.678Z,15.42
2022-10-11T13:33:32.274Z,15.38
2022-10-11T13:36:05.397Z,15.31
2022-10-11T13:38:35.267Z,15.27
2022-10-11T13:41:05.227Z,15.54
2022-10-11T13:43:32.421Z,15.41
2022-10-11T13:46:00.708Z,15.50
2022-10-11T13:48:31.602Z,15.72
2022-10-11T13:51:33.821Z,15.83
2022-10-11T13:54:03.741Z,15.71
2022-10-11T13:56:52.948Z,15.77
2022-10-11T13:59:25.020Z,15.87
2022-10-11T14:02:01.879Z,15.72
2022-10-11T14:04:39.855Z,15.58
2022-10-11T14:07:06.555Z,15.86
2022-10-11T14:09:39.045Z,15.73
2022-10-11T14:12:27.175Z,15.68
2022-10-11T14:14:53.766Z,15.42
2022-10-11T14:17:32.183Z,15.44
2022-10-11T14:20:11.704Z,15.37
2022-10-11T14:22:38.680Z,15.19
2022-10-11T14:25:05.396Z,15.37
2022-10-11T14:27:32.117Z,15.38
2022-10-11T14:30:25.480Z,15.45
2022-10-11T14:32:47.440Z,15.49
2022-10-11T14:35:20.554Z,15.38
2022-10-11T14:37:47.348Z,15.52
2022-10-11T14:40:17.211Z,15.48
2022-10-11T14:42:43.932Z,15.44
2022-10-11T14:45:11.536Z,15.31
2022-10-11T14:47:42.801Z,15.29
2022-10-11T14:50:28.616Z,15.32
2022-10-11T14:52:55.622Z,15.36
2022-10-11T14:55:22.892Z,15.50
2022-10-11T14:57:49.715Z,15.21
2022-10-11T15:00:24.419Z,15.26
2022-10-11T15:02:52.658Z,15.36
2022-10-11T15:05:19.938Z,15.36
2022-10-11T15:07:46.662Z,15.23
2022-10-11T15:10:24.071Z,15.18
2022-10-11T15:12:52.596Z,15.17
2022-10-11T15:15:22.523Z,15.13
2022-10-11T15:17:52.285Z,15.14
2022-10-11T15:20:34.595Z,15.17
2022-10-11T15:23:01.964Z,15.03
2022-10-11T15:25:29.215Z,15.11
2022-10-11T15:27:56.731Z,15.27
2022-10-11T15:30:30.367Z,15.36
2022-10-11T15:32:57.645Z,15.18
2022-10-11T15:35:25.316Z,14.91
2022-10-11T15:37:53.673Z,14.63
2022-10-11T15:40:25.567Z,14.64
2022-10-11T15:42:54.431Z,14.62
2022-10-11T15:45:22.146Z,14.63
2022-10-11T15:47:49.446Z,14.58
2022-10-11T15:50:33.567Z,14.45
2022-10-11T15:53:13.368Z,14.57
2022-10-11T15:55:43.270Z,14.39
2022-10-11T15:58:15.715Z,14.28
2022-10-11T16:00:43.243Z,14.08
2022-10-11T16:03:12.743Z,14.15
2022-10-11T16:05:39.632Z,14.03
2022-10-11T16:08:06.632Z,14.19
2022-10-11T16:10:32.965Z,14.05
2022-10-11T16:12:59.401Z,14.06
2022-10-11T16:15:26.632Z,13.99
2022-10-11T16:17:53.093Z,13.90
2022-10-11T16:20:24.628Z,13.94
2022-10-11T16:22:54.201Z,14.03
2022-10-11T16:25:21.873Z,13.93
2022-10-11T16:27:51.845Z,13.86
2022-10-11T16:30:19.563Z,13.89
2022-10-11T16:32:46.156Z,13.77
2022-10-11T16:35:14.551Z,13.84
2022-10-11T16:37:41.528Z,13.81
2022-10-11T16:40:10.231Z,13.77
2022-10-11T16:42:38.861Z,13.75
2022-10-11T16:45:06.606Z,13.73
2022-10-11T16:47:32.984Z,13.70
2022-10-11T16:49:59.993Z,13.65
2022-10-11T16:52:26.932Z,13.62
2022-10-11T16:54:53.260Z,13.41
2022-10-11T16:57:19.860Z,13.35
2022-10-11T16:59:47.198Z,13.36
2022-10-11T17:02:22.246Z,13.35
2022-10-11T17:04:51.757Z,13.40
2022-10-11T17:07:19.451Z,13.41
2022-10-11T17:09:46.970Z,13.42
2022-10-11T17:12:15.260Z,13.33
2022-10-11T17:14:42.373Z,13.45
2022-10-11T17:17:10.606Z,13.35
2022-10-11T17:19:44.853Z,13.20
2022-10-11T17:22:13.584Z,13.14
2022-10-11T17:24:39.976Z,13.07
2022-10-11T17:27:07.110Z,12.99
2022-10-11T17:29:34.044Z,12.99
2022-10-11T17:32:00.613Z,13.04
2022-10-11T17:34:27.540Z,13.04
2022-10-11T17:36:53.967Z,13.04
2022-10-11T17:39:22.883Z,13.05
2022-10-11T17:41:50.666Z,13.04
2022-10-11T17:44:18.720Z,12.92
2022-10-11T17:46:45.582Z,12.80
2022-10-11T17:49:12.957Z,12.80
2022-10-11T17:51:40.148Z,12.77
2022-10-11T17:54:06.607Z,12.73
2022-10-11T17:56:37.651Z,12.76
2022-10-11T17:59:04.769Z,12.69
2022-10-11T18:01:31.210Z,12.67
2022-10-11T18:04:00.556Z,12.71
2022-10-11T18:06:28.839Z,12.66
2022-10-11T18:08:57.171Z,12.61
2022-10-11T18:11:24.083Z,12.49
2022-10-11T18:13:52.841Z,12.46
2022-10-11T18:16:21.679Z,12.40
2022-10-11T18:18:48.693Z,12.37
2022-10-11T18:21:16.122Z,12.38
2022-10-11T18:23:42.433Z,12.33
2022-10-11T18:26:14.498Z,12.29
2022-10-11T18:28:42.448Z,12.29
2022-10-11T18:31:13.758Z,12.33
2022-10-11T18:33:42.182Z,12.32
2022-10-11T18:36:10.828Z,12.32
2022-10-11T18:38:37.998Z,12.29
2022-10-11T18:41:09.743Z,12.29
2022-10-11T18:43:37.367Z,12.28
2022-10-11T18:46:15.149Z,12.25
2022-10-11T18:48:42.956Z,12.24
2022-10-11T18:51:12.329Z,12.17
2022-10-11T18:53:39.376Z,12.07
2022-10-11T18:56:08.388Z,12.00
2022-10-11T18:58:36.579Z,12.01
2022-10-11T19:01:13.166Z,12.04
2022-10-11T19:03:39.562Z,12.01
2022-10-11T19:06:17.373Z,11.88
2022-10-11T19:08:49.107Z,11.74
2022-10-11T19:11:16.515Z,11.62
2022-10-11T19:13:43.994Z,11.56
2022-10-11T19:16:13.307Z,11.61
2022-10-11T19:18:44.079Z,11.64
2022-10-11T19:21:13.088Z,11.69
2022-10-11T19:23:44.888Z,11.73
2022-10-11T19:26:22.997Z,11.70
2022-10-11T19:28:58.550Z,11.79
2022-10-11T19:31:25.697Z,11.87
2022-10-11T19:33:52.588Z,11.95
2022-10-11T19:36:19.738Z,11.96
2022-10-11T19:38:48.861Z,12.01
2022-10-11T19:41:17.965Z,11.97
2022-10-11T19:43:45.259Z,12.02
2022-10-11T19:46:20.238Z,11.98
2022-10-11T19:48:54.778Z,12.04
2022-10-11T19:51:25.834Z,12.14
2022-10-11T19:54:00.998Z,12.14
2022-10-11T19:56:29.476Z,12.08
2022-10-11T19:58:56.293Z,12.02
2022-10-11T20:01:25.585Z,11.89
2022-10-11T20:04:01.580Z,11.73
2022-10-11T20:06:28.501Z,11.67
2022-10-11T20:09:16.786Z,11.75
2022-10-11T20:11:42.255Z,11.79
2022-10-11T20:14:09.223Z,11.90
2022-10-11T20:16:35.555Z,11.95
2022-10-11T20:19:02.063Z,12.02
2022-10-11T20:21:30.431Z,12.08
2022-10-11T20:24:01.990Z,12.19
2022-10-11T20:26:29.429Z,12.19
2022-10-11T20:28:57.469Z,12.07
2022-10-11T20:31:33.034Z,11.99
2022-10-11T20:34:02.740Z,12.00
2022-10-11T20:36:30.485Z,11.95
2022-10-11T20:38:59.073Z,12.04
2022-10-11T20:41:29.519Z,12.12
2022-10-11T20:43:56.891Z,12.20
2022-10-11T20:46:27.958Z,12.00
2022-10-11T20:49:01.778Z,12.11
2022-10-11T20:51:30.058Z,12.31
2022-10-11T20:53:56.733Z,12.31
2022-10-11T20:56:24.041Z,12.27
2022-10-11T20:58:52.504Z,12.34
2022-10-11T21:01:21.965Z,12.26
2022-10-11T21:03:48.876Z,12.25
2022-10-11T21:06:15.196Z,12.30
2022-10-11T21:08:41.933Z,12.17
2022-10-11T21:11:09.868Z,12.04
2022-10-11T21:13:36.839Z,11.92
2022-10-11T21:16:14.223Z,11.91
2022-10-11T21:18:40.862Z,11.89
2022-10-11T21:21:12.799Z,11.88
2022-10-11T21:23:40.251Z,11.86
2022-10-11T21:26:09.500Z,11.96
2022-10-11T21:28:36.422Z,11.84
2022-10-11T21:31:08.472Z,11.86
2022-10-11T21:33:35.891Z,11.88
2022-10-11T21:36:22.015Z,11.97
2022-10-11T21:38:50.103Z,12.02
2022-10-11T21:41:18.952Z,12.02
2022-10-11T21:43:45.569Z,11.99
2022-10-11T21:46:18.876Z,11.93
2022-10-11T21:48:46.003Z,11.91
2022-10-11T21:51:30.747Z,11.88
2022-10-11T21:54:00.128Z,11.94
2022-10-11T21:56:27.490Z,11.95
2022-10-11T21:58:54.223Z,11.90
2022-10-11T22:01:20.937Z,11.87
2022-10-11T22:03:50.028Z,11.90
2022-10-11T22:06:16.872Z,11.91
2022-10-11T22:08:43.283Z,11.96
2022-10-11T22:11:10.749Z,11.99
2022-10-11T22:13:37.559Z,11.90
2022-10-11T22:16:08.574Z,11.86
2022-10-11T22:18:35.295Z,11.89
2022-10-11T22:21:08.160Z,11.91
2022-10-11T22:23:34.556Z,11.82
2022-10-11T22:26:10.059Z,11.82
2022-10-11T22:28:36.672Z,11.82
2022-10-11T22:31:05.463Z,11.91
2022-10-11T22:33:32.739Z,11.93
2022-10-11T22:36:02.092Z,11.94
2022-10-11T22:38:28.684Z,11.93
2022-10-11T22:40:57.869Z,11.95
2022-10-11T22:43:24.575Z,11.97
2022-10-11T22:45:50.900Z,11.99
2022-10-11T22:48:17.306Z,11.98
2022-10-11T22:50:44.031Z,11.97
2022-10-11T22:53:12.751Z,11.95
2022-10-11T22:55:39.625Z,11.94
2022-10-11T22:58:07.084Z,11.94
2022-10-11T23:00:34.073Z,11.94
2022-10-11T23:03:00.648Z,11.90
2022-10-11T23:05:27.378Z,11.85
2022-10-11T23:07:53.728Z,11.87
2022-10-11T23:10:20.642Z,11.81
2022-10-11T23:12:47.726Z,11.75
2022-10-11T23:15:15.193Z,11.79
2022-10-11T23:17:42.102Z,11.83
2022-10-11T23:20:09.540Z,11.75
2022-10-11T23:22:36.355Z,11.67
2022-10-11T23:25:02.751Z,11.59
2022-10-11T23:27:29.923Z,11.71
2022-10-11T23:29:56.823Z,11.67
2022-10-11T23:32:23.527Z,11.70
2022-10-11T23:34:51.970Z,11.64
2022-10-11T23:37:18.326Z,11.60
2022-10-11T23:39:45.136Z,11.54
2022-10-11T23:42:11.835Z,11.57
2022-10-11T23:44:38.145Z,11.56
2022-10-11T23:47:04.498Z,11.51
2022-10-11T23:49:31.260Z,11.61
2022-10-11T23:51:58.028Z,11.55
2022-10-11T23:54:24.442Z,11.47
2022-10-11T23:56:50.738Z,11.45
2022-10-11T23:59:17.451Z,11.41
